Airfield :
LOGIN :

Register | Disclaimer

   EN    FR    IT 

 










Legend :    VFR   Marginal VFR   IFR   Intensive IFR   Very Intensive IFR
Visi :
Ceiling :
>= 8 km
>= 3000ft
5 to 8 km
1000 to 3000 ft
1500m to 5 km
500 to 1000 ft
800 to 1500m
200 to 500 ft
< 800m
< 200 ft
Symbols :   Thunderstorms  Fog  Heavy snow  Heavy precipitations  Wind > 20 kt
SIGMETs :     Misc.  Thunderstorms  Icing  Turbulence  Mountain Waves  Volcanic Ashes






- Airport Elevation : 2425 ft


ETHA - Altenstadt Army

CURRENT METAR :
  • 161820Z 36007KT 8000 -RA FEW007 SCT015 BKN020 14/13 Q1018 BLACKWHT

EXPIRED METARs :
  • 161803Z 36011KT 5000 -RA BR SCT007 BKN015 14/13 Q1017 BLACKWHT
  • 161732Z 34011KT 4500 -RA BR BKN007 BKN015 15/14 Q1017 BLACKGRN
  • 161659Z 28005KT 8000 RA SCT008 BKN020 15/15 Q1017 BLACKWHT
  • 161620Z 27007KT 9999 -RA FEW012 BKN030 16/15 Q1017 BLACKBLU

TAF TAF ETHA
Valid from the 16 at 11:00 until the 16 at 20:00 UTC


161020Z 1611/1620 25005KT 9999 NSW SCT030 BKN080
TEMPO 1611/1620 27010KT 4000 SHRA BKN010 BKN020TCU
PROB30 1612/1620 30010G25KT 2000 TSRA BKN005 BKN020CB



MET'MAP, your aeronautical weather chart ! - Copyright ORBIFLY December 2007 - Disclaimer

ORBIFLY MET'MAP TEAM :

Programming & Development : Alexandra Zaïnal
Concept & original design : Baudouin d'Aumeries
Assistance for programming : Marc-Olivier Méhu
Technical & hardware support : Manuel Goepfert

Contact : metmap@orbifly.com




SOURCES & CREDITS :

   NOAA